Gujranwala, Pakistan
Current Conditions -  °F | °C
As of 6:25 PM on Thursday 30 Oct 2014 (Local Time) from OPLA Reporting Station
Smoke Smoke  
Wind Chill: 77°   Ceiling: Unl
Heat Index: 79°   Visibility: 2.5mi
Dew Point: 57°   Wind: 5mph
Humidity: 50%   Direction: 340°NNW
Pressure: NA   Gusts: NA
Location:  32.16°N, 74.18°E
Report Text: OPLA 301325Z 34004KT 4000 FU FEW100 25/14 Q1014/A29.92
Loading
Personal Weather Stations






























Interactive Weather Map
Tropical Storm Tracking
New forecast layout! Learn more

10-Day Weather Forecast

Advertisements
Track Severe Weather on mobile